sensor_id;sensor_type;location;lat;lon;timestamp;P1;durP1;ratioP1;P2;durP2;ratioP2
69319;SDS011;56467;53.502;49.248;2023-07-30T00:02:20;4.82;;;3.47;;
69319;SDS011;56467;53.502;49.248;2023-07-30T00:04:45;4.93;;;3.33;;
69319;SDS011;56467;53.502;49.248;2023-07-30T00:07:12;5.90;;;3.17;;
69319;SDS011;56467;53.502;49.248;2023-07-30T00:09:38;4.65;;;3.22;;
69319;SDS011;56467;53.502;49.248;2023-07-30T00:12:07;5.07;;;3.35;;
69319;SDS011;56467;53.502;49.248;2023-07-30T00:14:33;4.32;;;3.33;;
69319;SDS011;56467;53.502;49.248;2023-07-30T00:17:00;4.65;;;2.90;;
69319;SDS011;56467;53.502;49.248;2023-07-30T00:19:26;5.43;;;2.78;;
69319;SDS011;56467;53.502;49.248;2023-07-30T00:21:52;4.57;;;3.08;;
69319;SDS011;56467;53.502;49.248;2023-07-30T00:24:17;4.53;;;3.25;;
69319;SDS011;56467;53.502;49.248;2023-07-30T00:26:43;4.38;;;3.10;;
69319;SDS011;56467;53.502;49.248;2023-07-30T00:29:08;4.57;;;3.25;;
69319;SDS011;56467;53.502;49.248;2023-07-30T00:31:34;4.25;;;2.95;;
69319;SDS011;56467;53.502;49.248;2023-07-30T00:34:00;4.55;;;3.05;;
69319;SDS011;56467;53.502;49.248;2023-07-30T00:36:26;5.65;;;3.22;;
69319;SDS011;56467;53.502;49.248;2023-07-30T00:38:51;3.75;;;3.00;;
69319;SDS011;56467;53.502;49.248;2023-07-30T00:41:17;4.35;;;3.00;;
69319;SDS011;56467;53.502;49.248;2023-07-30T00:43:43;4.20;;;2.75;;
69319;SDS011;56467;53.502;49.248;2023-07-30T00:46:08;7.07;;;3.15;;
69319;SDS011;56467;53.502;49.248;2023-07-30T00:48:34;3.70;;;2.95;;
69319;SDS011;56467;53.502;49.248;2023-07-30T00:51:00;4.25;;;2.70;;
69319;SDS011;56467;53.502;49.248;2023-07-30T00:53:26;4.13;;;3.03;;
69319;SDS011;56467;53.502;49.248;2023-07-30T00:55:53;5.57;;;2.92;;
69319;SDS011;56467;53.502;49.248;2023-07-30T00:58:23;3.22;;;2.63;;
69319;SDS011;56467;53.502;49.248;2023-07-30T01:00:49;3.75;;;2.90;;
69319;SDS011;56467;53.502;49.248;2023-07-30T01:03:17;5.60;;;2.85;;
69319;SDS011;56467;53.502;49.248;2023-07-30T01:05:43;4.13;;;2.85;;
69319;SDS011;56467;53.502;49.248;2023-07-30T01:08:10;4.40;;;2.80;;
69319;SDS011;56467;53.502;49.248;2023-07-30T01:10:35;4.43;;;2.80;;
69319;SDS011;56467;53.502;49.248;2023-07-30T01:13:03;3.95;;;2.50;;
69319;SDS011;56467;53.502;49.248;2023-07-30T01:15:30;4.68;;;2.67;;
69319;SDS011;56467;53.502;49.248;2023-07-30T01:17:56;4.15;;;2.60;;
69319;SDS011;56467;53.502;49.248;2023-07-30T01:20:22;3.78;;;2.83;;
69319;SDS011;56467;53.502;49.248;2023-07-30T01:22:47;4.88;;;2.92;;
69319;SDS011;56467;53.502;49.248;2023-07-30T01:25:14;4.97;;;2.90;;
69319;SDS011;56467;53.502;49.248;2023-07-30T01:27:42;4.20;;;2.97;;
69319;SDS011;56467;53.502;49.248;2023-07-30T01:32:51;4.30;;;2.85;;
69319;SDS011;56467;53.502;49.248;2023-07-30T01:35:18;3.35;;;2.53;;
69319;SDS011;56467;53.502;49.248;2023-07-30T01:37:47;5.43;;;2.72;;
69319;SDS011;56467;53.502;49.248;2023-07-30T01:40:14;4.75;;;2.63;;
69319;SDS011;56467;53.502;49.248;2023-07-30T01:42:40;3.92;;;2.63;;
69319;SDS011;56467;53.502;49.248;2023-07-30T01:45:06;3.17;;;2.60;;
69319;SDS011;56467;53.502;49.248;2023-07-30T01:47:32;5.05;;;2.83;;
69319;SDS011;56467;53.502;49.248;2023-07-30T01:49:57;4.75;;;3.05;;
69319;SDS011;56467;53.502;49.248;2023-07-30T01:52:23;3.03;;;2.60;;
69319;SDS011;56467;53.502;49.248;2023-07-30T01:54:49;3.53;;;2.55;;
69319;SDS011;56467;53.502;49.248;2023-07-30T01:57:14;3.90;;;2.70;;
69319;SDS011;56467;53.502;49.248;2023-07-30T01:59:40;4.18;;;2.55;;
69319;SDS011;56467;53.502;49.248;2023-07-30T02:02:06;4.60;;;2.83;;
69319;SDS011;56467;53.502;49.248;2023-07-30T02:04:33;3.88;;;2.60;;
69319;SDS011;56467;53.502;49.248;2023-07-30T02:06:58;5.20;;;2.60;;
69319;SDS011;56467;53.502;49.248;2023-07-30T02:09:24;3.72;;;2.65;;
69319;SDS011;56467;53.502;49.248;2023-07-30T02:11:50;4.18;;;2.65;;
69319;SDS011;56467;53.502;49.248;2023-07-30T02:14:17;3.90;;;2.72;;
69319;SDS011;56467;53.502;49.248;2023-07-30T02:16:43;4.85;;;2.75;;
69319;SDS011;56467;53.502;49.248;2023-07-30T02:19:09;3.80;;;2.72;;
69319;SDS011;56467;53.502;49.248;2023-07-30T02:21:34;3.65;;;2.38;;
69319;SDS011;56467;53.502;49.248;2023-07-30T02:24:02;3.28;;;2.60;;
69319;SDS011;56467;53.502;49.248;2023-07-30T02:26:28;5.25;;;2.78;;
69319;SDS011;56467;53.502;49.248;2023-07-30T02:28:53;4.30;;;2.60;;
69319;SDS011;56467;53.502;49.248;2023-07-30T02:31:19;3.60;;;2.30;;
69319;SDS011;56467;53.502;49.248;2023-07-30T02:33:45;3.47;;;2.40;;
69319;SDS011;56467;53.502;49.248;2023-07-30T02:36:11;3.50;;;2.33;;
69319;SDS011;56467;53.502;49.248;2023-07-30T02:38:36;3.85;;;2.92;;
69319;SDS011;56467;53.502;49.248;2023-07-30T02:41:02;3.33;;;2.50;;
69319;SDS011;56467;53.502;49.248;2023-07-30T02:43:28;3.30;;;2.47;;
69319;SDS011;56467;53.502;49.248;2023-07-30T02:45:53;3.20;;;2.55;;
69319;SDS011;56467;53.502;49.248;2023-07-30T02:48:19;3.83;;;2.28;;
69319;SDS011;56467;53.502;49.248;2023-07-30T02:50:44;3.92;;;2.60;;
69319;SDS011;56467;53.502;49.248;2023-07-30T02:53:10;4.13;;;2.42;;
69319;SDS011;56467;53.502;49.248;2023-07-30T02:55:36;3.67;;;2.70;;
69319;SDS011;56467;53.502;49.248;2023-07-30T02:58:01;3.40;;;2.28;;
69319;SDS011;56467;53.502;49.248;2023-07-30T03:00:27;4.40;;;2.40;;
69319;SDS011;56467;53.502;49.248;2023-07-30T03:02:52;3.30;;;2.47;;
69319;SDS011;56467;53.502;49.248;2023-07-30T03:05:19;3.22;;;2.55;;
69319;SDS011;56467;53.502;49.248;2023-07-30T03:07:44;3.03;;;2.47;;
69319;SDS011;56467;53.502;49.248;2023-07-30T03:10:10;5.47;;;2.55;;
69319;SDS011;56467;53.502;49.248;2023-07-30T03:12:35;2.90;;;2.40;;
69319;SDS011;56467;53.502;49.248;2023-07-30T03:15:01;3.45;;;2.20;;
69319;SDS011;56467;53.502;49.248;2023-07-30T03:17:27;3.60;;;2.50;;
69319;SDS011;56467;53.502;49.248;2023-07-30T03:19:52;2.63;;;2.22;;
69319;SDS011;56467;53.502;49.248;2023-07-30T03:22:18;4.65;;;2.95;;
69319;SDS011;56467;53.502;49.248;2023-07-30T03:24:45;3.30;;;2.38;;
69319;SDS011;56467;53.502;49.248;2023-07-30T03:27:12;3.20;;;2.45;;
69319;SDS011;56467;53.502;49.248;2023-07-30T03:29:38;4.22;;;2.53;;
69319;SDS011;56467;53.502;49.248;2023-07-30T03:32:03;2.50;;;2.22;;
69319;SDS011;56467;53.502;49.248;2023-07-30T03:34:29;3.95;;;2.50;;
69319;SDS011;56467;53.502;49.248;2023-07-30T03:36:55;3.22;;;2.42;;
69319;SDS011;56467;53.502;49.248;2023-07-30T03:39:21;3.38;;;2.10;;
69319;SDS011;56467;53.502;49.248;2023-07-30T03:41:46;2.90;;;2.35;;
69319;SDS011;56467;53.502;49.248;2023-07-30T03:44:12;3.10;;;2.40;;
69319;SDS011;56467;53.502;49.248;2023-07-30T03:46:38;3.75;;;2.50;;
69319;SDS011;56467;53.502;49.248;2023-07-30T03:49:03;3.58;;;2.38;;
69319;SDS011;56467;53.502;49.248;2023-07-30T03:51:29;3.00;;;2.30;;
69319;SDS011;56467;53.502;49.248;2023-07-30T03:53:54;2.70;;;2.40;;
69319;SDS011;56467;53.502;49.248;2023-07-30T03:56:20;3.22;;;2.30;;
69319;SDS011;56467;53.502;49.248;2023-07-30T03:58:46;2.70;;;2.38;;
69319;SDS011;56467;53.502;49.248;2023-07-30T04:01:11;2.90;;;2.30;;
69319;SDS011;56467;53.502;49.248;2023-07-30T04:03:37;4.00;;;2.30;;
69319;SDS011;56467;53.502;49.248;2023-07-30T04:06:03;2.50;;;2.20;;
69319;SDS011;56467;53.502;49.248;2023-07-30T04:08:29;3.10;;;2.33;;
69319;SDS011;56467;53.502;49.248;2023-07-30T04:10:54;2.53;;;2.00;;
69319;SDS011;56467;53.502;49.248;2023-07-30T04:13:20;2.83;;;2.20;;
69319;SDS011;56467;53.502;49.248;2023-07-30T04:15:49;3.05;;;2.22;;
69319;SDS011;56467;53.502;49.248;2023-07-30T04:18:15;2.53;;;2.20;;
69319;SDS011;56467;53.502;49.248;2023-07-30T04:20:40;4.43;;;2.60;;
69319;SDS011;56467;53.502;49.248;2023-07-30T04:23:06;3.30;;;2.60;;
69319;SDS011;56467;53.502;49.248;2023-07-30T04:25:32;2.65;;;2.20;;
69319;SDS011;56467;53.502;49.248;2023-07-30T04:27:57;4.88;;;2.40;;
69319;SDS011;56467;53.502;49.248;2023-07-30T04:30:23;2.63;;;2.25;;
69319;SDS011;56467;53.502;49.248;2023-07-30T04:32:49;3.35;;;2.45;;
69319;SDS011;56467;53.502;49.248;2023-07-30T04:35:15;2.55;;;2.20;;
69319;SDS011;56467;53.502;49.248;2023-07-30T04:37:40;2.67;;;2.47;;
69319;SDS011;56467;53.502;49.248;2023-07-30T04:40:06;4.18;;;2.40;;
69319;SDS011;56467;53.502;49.248;2023-07-30T04:42:32;3.15;;;2.38;;
69319;SDS011;56467;53.502;49.248;2023-07-30T04:44:58;2.65;;;2.33;;
69319;SDS011;56467;53.502;49.248;2023-07-30T04:47:26;3.05;;;2.22;;
69319;SDS011;56467;53.502;49.248;2023-07-30T04:49:52;2.70;;;2.30;;
69319;SDS011;56467;53.502;49.248;2023-07-30T04:52:18;3.30;;;2.33;;
69319;SDS011;56467;53.502;49.248;2023-07-30T04:54:44;4.82;;;2.60;;
69319;SDS011;56467;53.502;49.248;2023-07-30T04:57:09;3.63;;;2.63;;
69319;SDS011;56467;53.502;49.248;2023-07-30T04:59:35;2.45;;;2.22;;
69319;SDS011;56467;53.502;49.248;2023-07-30T05:02:01;3.55;;;2.47;;
69319;SDS011;56467;53.502;49.248;2023-07-30T05:04:26;3.38;;;2.40;;
69319;SDS011;56467;53.502;49.248;2023-07-30T05:06:52;2.50;;;2.30;;
69319;SDS011;56467;53.502;49.248;2023-07-30T05:09:18;4.70;;;2.53;;
69319;SDS011;56467;53.502;49.248;2023-07-30T05:11:44;4.15;;;2.30;;
69319;SDS011;56467;53.502;49.248;2023-07-30T05:14:09;2.72;;;2.33;;
69319;SDS011;56467;53.502;49.248;2023-07-30T05:16:35;3.35;;;2.58;;
69319;SDS011;56467;53.502;49.248;2023-07-30T05:19:01;3.00;;;2.40;;
69319;SDS011;56467;53.502;49.248;2023-07-30T05:21:27;3.47;;;2.97;;
69319;SDS011;56467;53.502;49.248;2023-07-30T05:23:53;3.75;;;2.67;;
69319;SDS011;56467;53.502;49.248;2023-07-30T05:26:18;3.10;;;2.80;;
69319;SDS011;56467;53.502;49.248;2023-07-30T05:28:44;3.60;;;2.47;;
69319;SDS011;56467;53.502;49.248;2023-07-30T05:31:10;3.92;;;2.60;;
69319;SDS011;56467;53.502;49.248;2023-07-30T05:33:35;3.70;;;2.50;;
69319;SDS011;56467;53.502;49.248;2023-07-30T05:36:01;3.05;;;2.50;;
69319;SDS011;56467;53.502;49.248;2023-07-30T05:38:27;3.05;;;2.70;;
69319;SDS011;56467;53.502;49.248;2023-07-30T05:40:52;2.58;;;2.38;;
69319;SDS011;56467;53.502;49.248;2023-07-30T05:43:18;3.60;;;2.80;;
69319;SDS011;56467;53.502;49.248;2023-07-30T05:45:44;3.58;;;2.70;;
69319;SDS011;56467;53.502;49.248;2023-07-30T05:48:09;3.05;;;2.55;;
69319;SDS011;56467;53.502;49.248;2023-07-30T05:50:35;4.82;;;3.10;;
69319;SDS011;56467;53.502;49.248;2023-07-30T05:53:01;4.43;;;2.90;;
69319;SDS011;56467;53.502;49.248;2023-07-30T05:55:26;3.58;;;2.97;;
69319;SDS011;56467;53.502;49.248;2023-07-30T05:57:52;3.97;;;2.90;;
69319;SDS011;56467;53.502;49.248;2023-07-30T06:00:18;3.92;;;2.90;;
69319;SDS011;56467;53.502;49.248;2023-07-30T06:02:44;3.80;;;2.53;;
69319;SDS011;56467;53.502;49.248;2023-07-30T06:05:10;3.10;;;2.78;;
69319;SDS011;56467;53.502;49.248;2023-07-30T06:07:35;3.45;;;2.85;;
69319;SDS011;56467;53.502;49.248;2023-07-30T06:10:01;5.15;;;3.05;;
69319;SDS011;56467;53.502;49.248;2023-07-30T06:12:27;3.53;;;2.92;;
69319;SDS011;56467;53.502;49.248;2023-07-30T06:14:53;3.60;;;2.85;;
69319;SDS011;56467;53.502;49.248;2023-07-30T06:17:18;5.13;;;2.92;;
69319;SDS011;56467;53.502;49.248;2023-07-30T06:19:44;3.97;;;2.90;;
69319;SDS011;56467;53.502;49.248;2023-07-30T06:22:09;3.33;;;2.72;;
69319;SDS011;56467;53.502;49.248;2023-07-30T06:24:35;4.00;;;2.80;;
69319;SDS011;56467;53.502;49.248;2023-07-30T06:27:01;3.40;;;2.72;;
69319;SDS011;56467;53.502;49.248;2023-07-30T06:29:26;3.63;;;2.80;;
69319;SDS011;56467;53.502;49.248;2023-07-30T06:31:52;3.70;;;3.05;;
69319;SDS011;56467;53.502;49.248;2023-07-30T06:34:18;3.45;;;2.88;;
69319;SDS011;56467;53.502;49.248;2023-07-30T06:36:43;3.38;;;2.80;;
69319;SDS011;56467;53.502;49.248;2023-07-30T06:39:09;3.45;;;2.95;;
69319;SDS011;56467;53.502;49.248;2023-07-30T06:41:34;4.28;;;2.80;;
69319;SDS011;56467;53.502;49.248;2023-07-30T06:44:00;4.22;;;3.00;;
69319;SDS011;56467;53.502;49.248;2023-07-30T06:46:26;3.88;;;3.00;;
69319;SDS011;56467;53.502;49.248;2023-07-30T06:48:51;3.80;;;2.75;;
69319;SDS011;56467;53.502;49.248;2023-07-30T06:51:23;3.42;;;3.00;;
69319;SDS011;56467;53.502;49.248;2023-07-30T06:53:49;3.05;;;2.63;;
69319;SDS011;56467;53.502;49.248;2023-07-30T06:56:15;3.58;;;2.80;;
69319;SDS011;56467;53.502;49.248;2023-07-30T06:58:41;3.70;;;3.08;;
69319;SDS011;56467;53.502;49.248;2023-07-30T07:01:06;3.15;;;2.85;;
69319;SDS011;56467;53.502;49.248;2023-07-30T07:03:32;3.58;;;2.90;;
69319;SDS011;56467;53.502;49.248;2023-07-30T07:05:58;3.55;;;2.95;;
69319;SDS011;56467;53.502;49.248;2023-07-30T07:08:24;4.20;;;3.10;;
69319;SDS011;56467;53.502;49.248;2023-07-30T07:10:50;3.42;;;2.97;;
69319;SDS011;56467;53.502;49.248;2023-07-30T07:13:18;3.63;;;2.88;;
69319;SDS011;56467;53.502;49.248;2023-07-30T07:15:44;3.50;;;3.20;;
69319;SDS011;56467;53.502;49.248;2023-07-30T07:18:10;3.83;;;2.90;;
69319;SDS011;56467;53.502;49.248;2023-07-30T07:20:36;4.53;;;3.22;;
69319;SDS011;56467;53.502;49.248;2023-07-30T07:23:03;4.28;;;2.88;;
69319;SDS011;56467;53.502;49.248;2023-07-30T07:25:28;3.40;;;2.88;;
69319;SDS011;56467;53.502;49.248;2023-07-30T07:27:54;3.83;;;3.15;;
69319;SDS011;56467;53.502;49.248;2023-07-30T07:30:20;4.18;;;2.83;;
69319;SDS011;56467;53.502;49.248;2023-07-30T07:32:46;3.55;;;2.80;;
69319;SDS011;56467;53.502;49.248;2023-07-30T07:35:15;4.38;;;2.80;;
69319;SDS011;56467;53.502;49.248;2023-07-30T07:37:41;3.35;;;2.83;;
69319;SDS011;56467;53.502;49.248;2023-07-30T07:40:07;3.45;;;3.00;;
69319;SDS011;56467;53.502;49.248;2023-07-30T07:42:37;5.40;;;2.88;;
69319;SDS011;56467;53.502;49.248;2023-07-30T07:45:04;4.18;;;3.10;;
69319;SDS011;56467;53.502;49.248;2023-07-30T07:47:30;4.45;;;3.22;;
69319;SDS011;56467;53.502;49.248;2023-07-30T07:49:56;3.63;;;2.80;;
69319;SDS011;56467;53.502;49.248;2023-07-30T07:52:22;3.65;;;3.20;;
69319;SDS011;56467;53.502;49.248;2023-07-30T07:54:47;3.97;;;3.22;;
69319;SDS011;56467;53.502;49.248;2023-07-30T07:57:13;3.40;;;3.08;;
69319;SDS011;56467;53.502;49.248;2023-07-30T07:59:39;5.63;;;3.40;;
69319;SDS011;56467;53.502;49.248;2023-07-30T08:02:06;3.78;;;3.28;;
69319;SDS011;56467;53.502;49.248;2023-07-30T08:04:32;5.07;;;3.30;;
69319;SDS011;56467;53.502;49.248;2023-07-30T08:06:58;4.25;;;3.20;;
69319;SDS011;56467;53.502;49.248;2023-07-30T08:09:28;4.22;;;3.35;;
69319;SDS011;56467;53.502;49.248;2023-07-30T08:11:54;5.28;;;3.30;;
69319;SDS011;56467;53.502;49.248;2023-07-30T08:14:20;5.60;;;3.30;;
69319;SDS011;56467;53.502;49.248;2023-07-30T08:16:46;3.40;;;3.00;;
69319;SDS011;56467;53.502;49.248;2023-07-30T08:19:11;4.40;;;3.22;;
69319;SDS011;56467;53.502;49.248;2023-07-30T08:21:37;4.38;;;3.38;;
69319;SDS011;56467;53.502;49.248;2023-07-30T08:24:03;3.90;;;3.10;;
69319;SDS011;56467;53.502;49.248;2023-07-30T08:26:29;5.00;;;3.30;;
69319;SDS011;56467;53.502;49.248;2023-07-30T08:28:55;3.97;;;3.28;;
69319;SDS011;56467;53.502;49.248;2023-07-30T08:31:20;3.58;;;3.15;;
69319;SDS011;56467;53.502;49.248;2023-07-30T08:33:46;3.50;;;3.10;;
69319;SDS011;56467;53.502;49.248;2023-07-30T08:36:12;4.22;;;3.17;;
69319;SDS011;56467;53.502;49.248;2023-07-30T08:38:37;3.60;;;3.25;;
69319;SDS011;56467;53.502;49.248;2023-07-30T08:41:03;4.55;;;3.15;;
69319;SDS011;56467;53.502;49.248;2023-07-30T08:43:28;3.90;;;3.30;;
69319;SDS011;56467;53.502;49.248;2023-07-30T08:45:54;4.13;;;3.30;;
69319;SDS011;56467;53.502;49.248;2023-07-30T08:48:20;4.65;;;3.25;;
69319;SDS011;56467;53.502;49.248;2023-07-30T08:50:45;3.45;;;3.03;;
69319;SDS011;56467;53.502;49.248;2023-07-30T08:53:13;3.83;;;2.95;;
69319;SDS011;56467;53.502;49.248;2023-07-30T08:55:40;4.38;;;3.42;;
69319;SDS011;56467;53.502;49.248;2023-07-30T08:58:06;3.45;;;2.97;;
69319;SDS011;56467;53.502;49.248;2023-07-30T09:00:34;3.40;;;3.00;;
69319;SDS011;56467;53.502;49.248;2023-07-30T09:03:03;3.75;;;3.00;;
69319;SDS011;56467;53.502;49.248;2023-07-30T09:05:29;4.10;;;3.10;;
69319;SDS011;56467;53.502;49.248;2023-07-30T09:07:56;3.70;;;2.85;;
69319;SDS011;56467;53.502;49.248;2023-07-30T09:10:22;4.53;;;3.00;;
69319;SDS011;56467;53.502;49.248;2023-07-30T09:12:52;3.42;;;2.80;;
69319;SDS011;56467;53.502;49.248;2023-07-30T09:15:20;3.50;;;2.90;;
69319;SDS011;56467;53.502;49.248;2023-07-30T09:17:58;4.95;;;3.15;;
69319;SDS011;56467;53.502;49.248;2023-07-30T09:20:24;3.67;;;3.22;;
69319;SDS011;56467;53.502;49.248;2023-07-30T09:22:50;4.28;;;3.63;;
69319;SDS011;56467;53.502;49.248;2023-07-30T09:25:17;3.78;;;2.92;;
69319;SDS011;56467;53.502;49.248;2023-07-30T09:27:47;5.10;;;3.63;;
69319;SDS011;56467;53.502;49.248;2023-07-30T09:30:15;3.45;;;3.10;;
69319;SDS011;56467;53.502;49.248;2023-07-30T09:32:50;4.00;;;3.30;;
69319;SDS011;56467;53.502;49.248;2023-07-30T09:35:20;3.72;;;3.13;;
69319;SDS011;56467;53.502;49.248;2023-07-30T09:37:47;3.92;;;3.42;;
69319;SDS011;56467;53.502;49.248;2023-07-30T09:40:13;3.40;;;3.10;;
69319;SDS011;56467;53.502;49.248;2023-07-30T09:42:45;4.22;;;3.30;;
69319;SDS011;56467;53.502;49.248;2023-07-30T09:45:16;4.53;;;3.10;;
69319;SDS011;56467;53.502;49.248;2023-07-30T09:47:47;4.07;;;3.22;;
69319;SDS011;56467;53.502;49.248;2023-07-30T09:50:14;4.70;;;3.50;;
69319;SDS011;56467;53.502;49.248;2023-07-30T09:52:40;4.05;;;3.15;;
69319;SDS011;56467;53.502;49.248;2023-07-30T09:55:07;4.65;;;3.30;;
69319;SDS011;56467;53.502;49.248;2023-07-30T09:57:33;4.70;;;3.30;;
69319;SDS011;56467;53.502;49.248;2023-07-30T10:00:00;3.55;;;3.03;;
69319;SDS011;56467;53.502;49.248;2023-07-30T10:02:27;6.18;;;3.65;;
69319;SDS011;56467;53.502;49.248;2023-07-30T10:04:56;4.35;;;3.38;;
69319;SDS011;56467;53.502;49.248;2023-07-30T10:07:24;3.90;;;3.13;;
69319;SDS011;56467;53.502;49.248;2023-07-30T10:09:53;4.00;;;3.10;;
69319;SDS011;56467;53.502;49.248;2023-07-30T10:12:24;4.63;;;3.08;;
69319;SDS011;56467;53.502;49.248;2023-07-30T10:14:53;3.90;;;3.20;;
69319;SDS011;56467;53.502;49.248;2023-07-30T10:17:19;3.88;;;3.42;;
69319;SDS011;56467;53.502;49.248;2023-07-30T10:19:49;3.85;;;3.25;;
69319;SDS011;56467;53.502;49.248;2023-07-30T10:27:41;15.93;;;9.60;;
69319;SDS011;56467;53.502;49.248;2023-07-30T10:30:15;13.38;;;8.68;;
69319;SDS011;56467;53.502;49.248;2023-07-30T10:32:42;13.77;;;8.82;;
69319;SDS011;56467;53.502;49.248;2023-07-30T10:35:42;16.23;;;9.70;;
69319;SDS011;56467;53.502;49.248;2023-07-30T10:38:18;13.25;;;8.75;;
69319;SDS011;56467;53.502;49.248;2023-07-30T10:41:09;16.92;;;10.15;;
69319;SDS011;56467;53.502;49.248;2023-07-30T10:46:04;19.92;;;12.25;;
69319;SDS011;56467;53.502;49.248;2023-07-30T10:48:40;22.92;;;13.10;;
69319;SDS011;56467;53.502;49.248;2023-07-30T10:51:08;19.75;;;12.25;;
69319;SDS011;56467;53.502;49.248;2023-07-30T10:53:34;19.00;;;11.00;;
69319;SDS011;56467;53.502;49.248;2023-07-30T10:56:04;19.35;;;10.82;;
69319;SDS011;56467;53.502;49.248;2023-07-30T10:58:35;16.48;;;9.93;;
69319;SDS011;56467;53.502;49.248;2023-07-30T11:01:01;16.15;;;9.45;;
69319;SDS011;56467;53.502;49.248;2023-07-30T11:03:29;13.65;;;8.60;;
69319;SDS011;56467;53.502;49.248;2023-07-30T11:05:56;13.20;;;8.70;;
69319;SDS011;56467;53.502;49.248;2023-07-30T11:11:17;13.25;;;8.18;;
69319;SDS011;56467;53.502;49.248;2023-07-30T11:13:43;12.80;;;8.13;;
69319;SDS011;56467;53.502;49.248;2023-07-30T11:16:13;13.55;;;8.10;;
69319;SDS011;56467;53.502;49.248;2023-07-30T11:18:40;12.05;;;7.97;;
69319;SDS011;56467;53.502;49.248;2023-07-30T11:21:11;11.45;;;7.60;;
69319;SDS011;56467;53.502;49.248;2023-07-30T11:23:38;11.10;;;7.22;;
69319;SDS011;56467;53.502;49.248;2023-07-30T11:26:06;11.20;;;7.40;;
69319;SDS011;56467;53.502;49.248;2023-07-30T11:28:33;11.63;;;7.40;;
69319;SDS011;56467;53.502;49.248;2023-07-30T11:31:09;11.02;;;7.03;;
69319;SDS011;56467;53.502;49.248;2023-07-30T11:33:40;10.38;;;7.10;;
69319;SDS011;56467;53.502;49.248;2023-07-30T11:36:11;10.88;;;7.05;;
69319;SDS011;56467;53.502;49.248;2023-07-30T11:38:39;9.57;;;6.65;;
69319;SDS011;56467;53.502;49.248;2023-07-30T11:41:05;9.15;;;6.43;;
69319;SDS011;56467;53.502;49.248;2023-07-30T11:43:35;10.88;;;6.47;;
69319;SDS011;56467;53.502;49.248;2023-07-30T11:46:15;9.38;;;6.38;;
69319;SDS011;56467;53.502;49.248;2023-07-30T11:48:46;9.68;;;6.40;;
69319;SDS011;56467;53.502;49.248;2023-07-30T11:51:22;8.65;;;5.90;;
69319;SDS011;56467;53.502;49.248;2023-07-30T11:56:24;11.95;;;7.85;;
69319;SDS011;56467;53.502;49.248;2023-07-30T11:58:53;10.18;;;7.63;;
69319;SDS011;56467;53.502;49.248;2023-07-30T12:01:21;12.52;;;8.23;;
69319;SDS011;56467;53.502;49.248;2023-07-30T12:03:48;12.73;;;8.40;;
69319;SDS011;56467;53.502;49.248;2023-07-30T12:06:14;12.63;;;9.10;;
69319;SDS011;56467;53.502;49.248;2023-07-30T12:08:40;12.20;;;8.20;;
69319;SDS011;56467;53.502;49.248;2023-07-30T12:11:07;11.70;;;8.57;;
69319;SDS011;56467;53.502;49.248;2023-07-30T12:13:34;12.07;;;8.70;;
69319;SDS011;56467;53.502;49.248;2023-07-30T12:16:08;11.85;;;8.88;;
69319;SDS011;56467;53.502;49.248;2023-07-30T12:18:34;14.77;;;8.55;;
69319;SDS011;56467;53.502;49.248;2023-07-30T12:20:59;11.77;;;8.50;;
69319;SDS011;56467;53.502;49.248;2023-07-30T12:23:25;11.55;;;8.25;;
69319;SDS011;56467;53.502;49.248;2023-07-30T12:25:51;13.10;;;8.40;;
69319;SDS011;56467;53.502;49.248;2023-07-30T12:28:18;12.32;;;8.40;;
69319;SDS011;56467;53.502;49.248;2023-07-30T12:30:43;11.38;;;8.40;;
69319;SDS011;56467;53.502;49.248;2023-07-30T12:33:09;9.90;;;7.30;;
69319;SDS011;56467;53.502;49.248;2023-07-30T12:35:35;10.27;;;7.63;;
69319;SDS011;56467;53.502;49.248;2023-07-30T12:38:00;10.20;;;7.53;;
69319;SDS011;56467;53.502;49.248;2023-07-30T12:40:26;10.23;;;7.65;;
69319;SDS011;56467;53.502;49.248;2023-07-30T12:42:54;9.35;;;6.95;;
69319;SDS011;56467;53.502;49.248;2023-07-30T12:45:20;10.77;;;7.03;;
69319;SDS011;56467;53.502;49.248;2023-07-30T12:47:46;9.55;;;7.13;;
69319;SDS011;56467;53.502;49.248;2023-07-30T12:50:12;9.00;;;6.70;;
69319;SDS011;56467;53.502;49.248;2023-07-30T12:52:38;9.07;;;6.70;;
69319;SDS011;56467;53.502;49.248;2023-07-30T12:55:04;9.25;;;6.82;;
69319;SDS011;56467;53.502;49.248;2023-07-30T12:57:30;9.73;;;6.60;;
69319;SDS011;56467;53.502;49.248;2023-07-30T12:59:57;9.18;;;6.57;;
69319;SDS011;56467;53.502;49.248;2023-07-30T13:02:22;7.97;;;6.50;;
69319;SDS011;56467;53.502;49.248;2023-07-30T13:04:48;8.93;;;6.43;;
69319;SDS011;56467;53.502;49.248;2023-07-30T13:07:14;8.00;;;5.88;;
69319;SDS011;56467;53.502;49.248;2023-07-30T13:09:39;7.82;;;6.13;;
69319;SDS011;56467;53.502;49.248;2023-07-30T13:12:05;7.63;;;6.10;;
69319;SDS011;56467;53.502;49.248;2023-07-30T13:14:31;9.13;;;6.40;;
69319;SDS011;56467;53.502;49.248;2023-07-30T13:16:57;7.88;;;6.00;;
69319;SDS011;56467;53.502;49.248;2023-07-30T13:19:23;7.53;;;5.70;;
69319;SDS011;56467;53.502;49.248;2023-07-30T13:21:48;7.88;;;5.80;;
69319;SDS011;56467;53.502;49.248;2023-07-30T13:24:14;9.02;;;6.10;;
69319;SDS011;56467;53.502;49.248;2023-07-30T13:26:40;8.18;;;5.45;;
69319;SDS011;56467;53.502;49.248;2023-07-30T13:29:05;7.53;;;5.45;;
69319;SDS011;56467;53.502;49.248;2023-07-30T13:31:31;6.25;;;5.43;;
69319;SDS011;56467;53.502;49.248;2023-07-30T13:33:57;8.90;;;5.55;;
69319;SDS011;56467;53.502;49.248;2023-07-30T13:36:22;6.88;;;5.30;;
69319;SDS011;56467;53.502;49.248;2023-07-30T13:38:48;7.07;;;5.72;;
69319;SDS011;56467;53.502;49.248;2023-07-30T13:41:14;8.57;;;6.43;;
69319;SDS011;56467;53.502;49.248;2023-07-30T13:43:39;8.95;;;6.28;;
69319;SDS011;56467;53.502;49.248;2023-07-30T13:46:05;9.10;;;6.38;;
69319;SDS011;56467;53.502;49.248;2023-07-30T13:48:31;8.90;;;5.85;;
69319;SDS011;56467;53.502;49.248;2023-07-30T13:50:56;7.32;;;5.28;;
69319;SDS011;56467;53.502;49.248;2023-07-30T13:53:22;7.97;;;5.80;;
69319;SDS011;56467;53.502;49.248;2023-07-30T13:55:48;7.93;;;5.80;;
69319;SDS011;56467;53.502;49.248;2023-07-30T13:58:14;7.53;;;5.60;;
69319;SDS011;56467;53.502;49.248;2023-07-30T14:00:40;7.70;;;5.80;;
69319;SDS011;56467;53.502;49.248;2023-07-30T14:03:07;6.75;;;5.30;;
69319;SDS011;56467;53.502;49.248;2023-07-30T14:05:33;7.95;;;5.68;;
69319;SDS011;56467;53.502;49.248;2023-07-30T14:07:59;7.85;;;5.80;;
69319;SDS011;56467;53.502;49.248;2023-07-30T14:10:25;7.25;;;5.25;;
69319;SDS011;56467;53.502;49.248;2023-07-30T14:12:54;8.02;;;5.72;;
69319;SDS011;56467;53.502;49.248;2023-07-30T14:15:19;7.32;;;5.18;;
69319;SDS011;56467;53.502;49.248;2023-07-30T14:17:46;6.68;;;4.72;;
69319;SDS011;56467;53.502;49.248;2023-07-30T14:20:11;6.32;;;4.95;;
69319;SDS011;56467;53.502;49.248;2023-07-30T14:22:37;6.82;;;5.18;;
69319;SDS011;56467;53.502;49.248;2023-07-30T14:25:03;5.60;;;4.63;;
69319;SDS011;56467;53.502;49.248;2023-07-30T14:27:29;6.43;;;4.85;;
69319;SDS011;56467;53.502;49.248;2023-07-30T14:29:54;5.95;;;4.65;;
69319;SDS011;56467;53.502;49.248;2023-07-30T14:32:20;5.60;;;4.60;;
69319;SDS011;56467;53.502;49.248;2023-07-30T14:34:46;5.78;;;4.60;;
69319;SDS011;56467;53.502;49.248;2023-07-30T14:37:12;6.30;;;4.43;;
69319;SDS011;56467;53.502;49.248;2023-07-30T14:39:38;5.93;;;4.50;;
69319;SDS011;56467;53.502;49.248;2023-07-30T14:42:06;5.78;;;4.20;;
69319;SDS011;56467;53.502;49.248;2023-07-30T14:44:32;5.80;;;4.50;;
69319;SDS011;56467;53.502;49.248;2023-07-30T14:46:59;5.90;;;4.50;;